Time;durP1;ratioP1;P1;durP2;ratioP2;P2;SDS_P1;SDS_P2;PMS_P1;PMS_P2;Temp;Humidity;BMP_temperature;BMP_pressure;BME280_temperature;BME280_humidity;BME280_pressure;Samples;Min_cycle;Max_cycle;Signal;HPM_P1;HPM_P2
2022/02/16 00:01:16;;;;;;;26.73;25.23;;;8.10;99.90;;;;;;4964402;28;20466;-70
2022/02/16 00:03:44;;;;;;;25.27;23.87;;;8.10;99.90;;;;;;4963449;28;20467;-69
2022/02/16 00:06:11;;;;;;;25.90;24.40;;;8.20;99.90;;;;;;4965324;28;20472;-69
2022/02/16 00:08:38;;;;;;;25.97;24.47;;;8.10;99.90;;;;;;4966008;28;20467;-70
2022/02/16 00:11:04;;;;;;;27.40;25.70;;;8.20;99.90;;;;;;4964593;28;20481;-69
2022/02/16 00:13:31;;;;;;;27.63;26.03;;;8.20;99.90;;;;;;4964770;28;21119;-69
2022/02/16 00:15:58;;;;;;;27.43;25.73;;;8.20;99.90;;;;;;4962797;28;20517;-70
2022/02/16 00:18:26;;;;;;;26.30;24.70;;;8.20;99.90;;;;;;4964671;28;20477;-69
2022/02/16 00:20:54;;;;;;;26.43;24.93;;;8.20;99.90;;;;;;4964862;28;20517;-70
2022/02/16 00:23:22;;;;;;;25.97;24.57;;;8.20;99.90;;;;;;4965657;28;20513;-70
2022/02/16 00:25:49;;;;;;;25.60;24.10;;;8.10;99.90;;;;;;4965982;28;20494;-70
2022/02/16 00:28:17;;;;;;;25.03;23.63;;;8.10;99.90;;;;;;4966874;28;20465;-70
2022/02/16 00:30:44;;;;;;;26.20;24.70;;;8.10;99.90;;;;;;4966492;28;20519;-70
2022/02/16 00:33:11;;;;;;;26.00;24.50;;;8.10;99.90;;;;;;4967469;28;20478;-70
2022/02/16 00:35:41;;;;;;;26.90;25.30;;;8.10;99.90;;;;;;4971379;28;21415;-71
2022/02/16 00:38:09;;;;;;;26.57;25.07;;;8.20;99.90;;;;;;4968785;28;20486;-70
2022/02/16 00:40:36;;;;;;;26.77;25.27;;;8.20;99.90;;;;;;4967958;28;20477;-70
2022/02/16 00:43:03;;;;;;;26.07;24.57;;;8.10;99.90;;;;;;4967564;28;20482;-69
2022/02/16 00:45:32;;;;;;;25.87;24.27;;;8.10;99.90;;;;;;4969873;28;20468;-70
2022/02/16 00:47:59;;;;;;;27.90;26.30;;;8.20;99.90;;;;;;4969175;28;20877;-70
2022/02/16 00:50:27;;;;;;;27.77;26.03;;;8.20;99.90;;;;;;4965736;28;20501;-69
2022/02/16 00:52:54;;;;;;;27.97;26.30;;;8.20;99.90;;;;;;4966956;28;20519;-70
2022/02/16 00:55:22;;;;;;;26.53;25.03;;;8.20;99.90;;;;;;4967493;28;21009;-70
2022/02/16 00:57:50;;;;;;;26.20;24.70;;;8.20;99.90;;;;;;4967784;28;20468;-70
2022/02/16 01:00:18;;;;;;;27.50;25.80;;;8.20;99.90;;;;;;4969153;28;20472;-70
2022/02/16 01:02:45;;;;;;;28.30;26.70;;;8.20;99.90;;;;;;4969503;28;20477;-70
2022/02/16 01:05:12;;;;;;;27.83;26.13;;;8.20;99.90;;;;;;4968182;28;20502;-69
2022/02/16 01:07:39;;;;;;;27.67;26.07;;;8.20;99.90;;;;;;4967602;28;20972;-71
2022/02/16 01:10:07;;;;;;;28.90;26.80;;;8.20;99.90;;;;;;4968063;28;20494;-70
2022/02/16 01:12:37;;;;;;;27.17;25.67;;;8.30;99.90;;;;;;4967876;28;20969;-70
2022/02/16 01:15:04;;;;;;;28.07;26.47;;;8.30;99.90;;;;;;4964805;28;20504;-70
2022/02/16 01:17:31;;;;;;;28.57;26.97;;;8.30;99.90;;;;;;4968739;28;20478;-70
2022/02/16 01:19:57;;;;;;;26.13;24.70;;;8.20;99.90;;;;;;4967544;28;20463;-70
2022/02/16 01:22:24;;;;;;;27.40;25.70;;;8.20;99.90;;;;;;4964816;28;20471;-70
2022/02/16 01:24:51;;;;;;;27.63;25.87;;;8.30;99.90;;;;;;4967902;28;20816;-70
2022/02/16 01:27:19;;;;;;;27.33;25.83;;;8.30;99.90;;;;;;4967360;28;20552;-70
2022/02/16 01:29:47;;;;;;;27.83;26.23;;;8.30;99.90;;;;;;4969705;28;20470;-71
2022/02/16 01:32:14;;;;;;;26.53;25.03;;;8.30;99.90;;;;;;4966091;28;20467;-69
2022/02/16 01:34:41;;;;;;;27.07;25.47;;;8.30;99.90;;;;;;4967456;28;20487;-69
2022/02/16 01:37:08;;;;;;;27.47;25.87;;;8.30;99.90;;;;;;4966431;28;20475;-69
2022/02/16 01:39:35;;;;;;;28.40;26.60;;;8.30;99.90;;;;;;4967492;28;21040;-69
2022/02/16 01:42:02;;;;;;;27.27;25.67;;;8.30;99.90;;;;;;4963825;28;20564;-70
2022/02/16 01:44:31;;;;;;;28.60;26.90;;;8.30;99.90;;;;;;4968687;28;20981;-70
2022/02/16 01:47:04;;;;;;;28.40;26.60;;;8.30;99.90;;;;;;4968091;28;21016;-70
2022/02/16 01:49:32;;;;;;;29.27;27.57;;;8.30;99.90;;;;;;4964807;28;20543;-70
2022/02/16 01:51:59;;;;;;;28.00;26.40;;;8.40;99.90;;;;;;4967222;28;20799;-71
2022/02/16 01:54:27;;;;;;;29.17;27.47;;;8.40;99.90;;;;;;4966966;28;20502;-70
2022/02/16 01:56:54;;;;;;;28.47;26.87;;;8.40;99.90;;;;;;4963079;28;20475;-70
2022/02/16 01:59:24;;;;;;;29.53;27.90;;;8.40;99.90;;;;;;4968192;28;20471;-70
2022/02/16 02:01:52;;;;;;;28.70;27.10;;;8.40;99.90;;;;;;4969429;28;20474;-70
2022/02/16 02:04:21;;;;;;;29.27;27.53;;;8.30;99.90;;;;;;4966589;28;20491;-69
2022/02/16 02:06:48;;;;;;;28.63;26.97;;;8.30;99.90;;;;;;4966166;28;20469;-72
2022/02/16 02:09:16;;;;;;;29.10;27.40;;;8.40;99.90;;;;;;4966610;28;20553;-71
2022/02/16 02:11:43;;;;;;;28.60;26.90;;;8.40;99.90;;;;;;4965591;28;20491;-72
2022/02/16 02:14:11;;;;;;;27.27;25.67;;;8.30;99.90;;;;;;4966947;28;20949;-72
2022/02/16 02:16:39;;;;;;;28.40;26.80;;;8.40;99.90;;;;;;4965793;28;20502;-72
2022/02/16 02:19:07;;;;;;;28.80;27.10;;;8.40;99.90;;;;;;4965654;28;20470;-72
2022/02/16 02:21:35;;;;;;;29.47;27.77;;;8.40;99.90;;;;;;4966622;28;20976;-71
2022/02/16 02:24:02;;;;;;;28.27;26.67;;;8.30;99.90;;;;;;4965387;28;20478;-72
2022/02/16 02:26:29;;;;;;;28.53;26.93;;;8.40;99.90;;;;;;4967645;28;20487;-72
2022/02/16 02:28:56;;;;;;;28.20;26.60;;;8.40;99.90;;;;;;4966769;28;20466;-70
2022/02/16 02:31:30;;;;;;;28.93;27.27;;;8.40;99.90;;;;;;4969778;28;20467;-71
2022/02/16 02:33:58;;;;;;;28.43;26.83;;;8.40;99.90;;;;;;4968276;28;20470;-71
2022/02/16 02:36:24;;;;;;;27.70;26.00;;;8.40;99.90;;;;;;4965825;28;20499;-70
2022/02/16 02:38:53;;;;;;;28.20;26.63;;;8.40;99.90;;;;;;4964151;28;21043;-71
2022/02/16 02:41:20;;;;;;;27.80;26.30;;;8.40;99.90;;;;;;4972997;28;20486;-72
2022/02/16 02:43:48;;;;;;;27.07;25.57;;;8.40;99.90;;;;;;4964683;28;20475;-70
2022/02/16 02:46:16;;;;;;;26.97;25.47;;;8.40;99.90;;;;;;4965907;28;20971;-71
2022/02/16 02:48:43;;;;;;;27.87;26.27;;;8.40;99.90;;;;;;4959211;28;20493;-70
2022/02/16 02:51:11;;;;;;;27.50;25.90;;;8.40;99.90;;;;;;4960691;28;20465;-71
2022/02/16 02:53:39;;;;;;;26.73;25.23;;;8.40;99.90;;;;;;4966229;28;20471;-70
2022/02/16 02:56:07;;;;;;;27.33;25.83;;;8.40;99.90;;;;;;4966726;28;20501;-71
2022/02/16 02:58:34;;;;;;;25.90;24.50;;;8.50;99.90;;;;;;4966859;28;20550;-71
2022/02/16 03:01:01;;;;;;;27.27;25.57;;;8.50;99.90;;;;;;4974769;28;20479;-71
2022/02/16 03:03:28;;;;;;;27.07;25.37;;;8.50;99.90;;;;;;4966107;28;20477;-70
2022/02/16 03:05:55;;;;;;;25.90;24.20;;;8.50;99.90;;;;;;4965777;28;20469;-70
2022/02/16 03:08:22;;;;;;;25.20;23.90;;;8.50;99.90;;;;;;4966192;28;20502;-70
2022/02/16 03:10:49;;;;;;;24.70;23.40;;;8.50;99.90;;;;;;4964894;28;20892;-69
2022/02/16 03:13:20;;;;;;;25.40;23.87;;;8.50;99.90;;;;;;4965569;28;20589;-71
2022/02/16 03:15:48;;;;;;;25.80;24.40;;;8.60;99.90;;;;;;4964040;28;21015;-71
2022/02/16 03:18:15;;;;;;;24.77;23.47;;;8.60;99.90;;;;;;4963657;28;20502;-72
2022/02/16 03:20:41;;;;;;;23.80;22.40;;;8.60;99.90;;;;;;4964144;28;20826;-70
2022/02/16 03:23:09;;;;;;;23.20;22.00;;;8.60;99.90;;;;;;4963435;28;20478;-70
2022/02/16 03:25:36;;;;;;;22.50;21.30;;;8.70;99.90;;;;;;4963984;28;20509;-71
2022/02/16 03:28:03;;;;;;;21.30;20.20;;;8.70;99.90;;;;;;4965378;28;20462;-70
2022/02/16 03:30:31;;;;;;;20.73;19.70;;;8.70;99.90;;;;;;4976279;28;21208;-71
2022/02/16 03:33:01;;;;;;;19.13;18.13;;;8.70;99.90;;;;;;4964387;28;20470;-70
2022/02/16 03:35:28;;;;;;;19.90;18.90;;;8.80;99.90;;;;;;4968582;28;20483;-70
2022/02/16 03:37:55;;;;;;;19.07;18.10;;;8.80;99.90;;;;;;4964144;28;20491;-70
2022/02/16 03:40:22;;;;;;;20.20;19.20;;;8.80;99.90;;;;;;4966234;28;20558;-72
2022/02/16 03:42:49;;;;;;;19.07;18.17;;;8.90;99.90;;;;;;4964035;28;21039;-71
2022/02/16 03:45:16;;;;;;;19.00;18.00;;;8.90;99.90;;;;;;4963783;28;20463;-72
2022/02/16 03:47:45;;;;;;;18.90;17.90;;;8.90;99.90;;;;;;4963802;28;20467;-70
2022/02/16 03:50:13;;;;;;;17.93;17.03;;;9.00;99.90;;;;;;4961411;28;20525;-71
2022/02/16 03:52:40;;;;;;;18.33;17.43;;;9.00;99.90;;;;;;4964625;28;20471;-71
2022/02/16 03:55:08;;;;;;;17.10;16.30;;;9.00;99.90;;;;;;4959124;28;20987;-70
2022/02/16 03:57:35;;;;;;;17.20;16.40;;;9.00;99.90;;;;;;4963707;28;20457;-72
2022/02/16 04:00:04;;;;;;;17.63;16.83;;;9.10;99.90;;;;;;4964400;28;20468;-71
2022/02/16 04:02:31;;;;;;;20.83;19.10;;;9.00;99.90;;;;;;4965474;28;20462;-71
2022/02/16 04:04:59;;;;;;;21.20;19.87;;;9.10;99.90;;;;;;4964593;28;20470;-71
2022/02/16 04:07:26;;;;;;;21.57;20.37;;;9.00;99.90;;;;;;4964824;28;20471;-70
2022/02/16 04:09:53;;;;;;;23.33;21.83;;;9.00;99.90;;;;;;4965127;28;20502;-70
2022/02/16 04:12:20;;;;;;;23.00;21.70;;;9.00;99.90;;;;;;4966218;28;20482;-70
2022/02/16 04:14:47;;;;;;;24.70;23.30;;;8.90;99.90;;;;;;4966804;28;20472;-71
2022/02/16 04:17:13;;;;;;;26.13;24.63;;;8.90;99.90;;;;;;4962880;28;20501;-71
2022/02/16 04:19:41;;;;;;;26.00;24.50;;;8.90;99.90;;;;;;4962185;28;20994;-71
2022/02/16 04:22:14;;;;;;;25.90;24.40;;;8.90;99.90;;;;;;4965174;28;20537;-70
2022/02/16 04:24:42;;;;;;;25.40;23.90;;;9.00;99.90;;;;;;4962148;28;20595;-70
2022/02/16 04:27:08;;;;;;;25.90;24.40;;;9.00;99.90;;;;;;4965262;28;20490;-70
2022/02/16 04:29:35;;;;;;;26.43;24.93;;;8.90;99.90;;;;;;4964403;28;20463;-71
2022/02/16 04:32:02;;;;;;;26.17;24.67;;;9.00;99.90;;;;;;4967546;28;20467;-71
2022/02/16 04:34:29;;;;;;;24.67;23.27;;;8.90;99.90;;;;;;4965048;28;20463;-70
2022/02/16 04:36:57;;;;;;;26.10;24.60;;;8.90;99.90;;;;;;4955784;28;20952;-70
2022/02/16 04:39:25;;;;;;;25.83;24.43;;;8.90;99.90;;;;;;4964321;28;20725;-71
2022/02/16 04:41:53;;;;;;;25.30;23.90;;;8.90;99.90;;;;;;4964560;28;20526;-71
2022/02/16 04:44:19;;;;;;;25.80;24.40;;;8.90;99.90;;;;;;4966419;28;20553;-71
2022/02/16 04:46:47;;;;;;;25.23;23.83;;;8.90;99.90;;;;;;4965072;28;20474;-71
2022/02/16 04:49:13;;;;;;;25.10;23.70;;;8.90;99.90;;;;;;4963477;28;20477;-72
2022/02/16 04:51:40;;;;;;;24.60;23.20;;;8.90;99.90;;;;;;4964071;28;20460;-68
2022/02/16 04:54:07;;;;;;;24.90;23.53;;;8.90;99.90;;;;;;4965113;28;20558;-70
2022/02/16 04:56:37;;;;;;;25.30;23.90;;;8.90;99.90;;;;;;4965300;28;20491;-70
2022/02/16 04:59:06;;;;;;;24.70;23.33;;;8.90;99.90;;;;;;4955661;28;21511;-71
2022/02/16 05:01:33;;;;;;;25.20;23.80;;;8.90;99.90;;;;;;4940687;28;20463;-70
2022/02/16 05:04:00;;;;;;;25.07;23.67;;;8.90;99.90;;;;;;4936552;28;20476;-70
2022/02/16 05:06:27;;;;;;;24.23;22.93;;;9.00;99.90;;;;;;4936336;28;20861;-69
2022/02/16 05:08:53;;;;;;;24.57;23.20;;;9.00;99.90;;;;;;4936435;28;20474;-71
2022/02/16 05:11:20;;;;;;;23.90;22.60;;;9.00;99.90;;;;;;4935416;28;20483;-70
2022/02/16 05:13:48;;;;;;;23.80;22.60;;;9.00;99.90;;;;;;4939210;28;20468;-70
2022/02/16 05:16:15;;;;;;;23.80;22.60;;;9.00;99.90;;;;;;4939451;28;20488;-71
2022/02/16 05:18:42;;;;;;;23.40;22.20;;;9.00;99.90;;;;;;4940437;28;21003;-71
2022/02/16 05:21:09;;;;;;;21.60;20.50;;;9.10;99.90;;;;;;4939188;28;20448;-70
2022/02/16 05:23:36;;;;;;;22.17;21.07;;;9.10;99.90;;;;;;4940166;28;21241;-72
2022/02/16 05:26:03;;;;;;;21.53;20.40;;;9.10;99.90;;;;;;4938395;28;20478;-71
2022/02/16 05:28:29;;;;;;;20.80;19.50;;;9.10;99.90;;;;;;4940314;28;21150;-69
2022/02/16 05:30:57;;;;;;;20.20;19.20;;;9.10;99.90;;;;;;4940335;28;21053;-71
2022/02/16 05:33:24;;;;;;;19.83;18.83;;;9.20;99.90;;;;;;4942022;28;20484;-71
2022/02/16 05:35:51;;;;;;;18.97;18.07;;;9.20;99.90;;;;;;4962350;28;20476;-71
2022/02/16 05:38:19;;;;;;;18.80;17.87;;;9.20;99.90;;;;;;4966807;28;20471;-71
2022/02/16 05:40:46;;;;;;;18.77;17.80;;;9.10;99.90;;;;;;4967555;28;20635;-70
2022/02/16 05:43:13;;;;;;;18.40;16.90;;;9.10;99.90;;;;;;4941485;28;20499;-71
2022/02/16 05:45:40;;;;;;;17.43;16.57;;;9.20;99.90;;;;;;4940549;28;20459;-70
2022/02/16 05:48:08;;;;;;;18.17;16.77;;;9.20;99.90;;;;;;4940714;28;20484;-70
2022/02/16 05:50:36;;;;;;;16.00;15.30;;;9.20;99.90;;;;;;4940298;28;20569;-70
2022/02/16 05:53:03;;;;;;;16.70;15.80;;;9.30;99.90;;;;;;4940498;28;20631;-71
2022/02/16 05:55:30;;;;;;;16.10;15.30;;;9.30;99.90;;;;;;4939884;28;20843;-70
2022/02/16 05:57:57;;;;;;;15.80;15.10;;;9.30;99.90;;;;;;4939954;28;20502;-70
2022/02/16 06:00:23;;;;;;;15.60;14.90;;;9.30;99.90;;;;;;4940439;28;20474;-70
2022/02/16 06:02:50;;;;;;;15.37;14.67;;;9.30;99.90;;;;;;4940919;28;20577;-70
2022/02/16 06:05:18;;;;;;;14.87;14.17;;;9.40;99.90;;;;;;4940821;28;20514;-70
2022/02/16 06:07:45;;;;;;;14.23;13.60;;;9.40;99.90;;;;;;4940701;28;20473;-72
2022/02/16 06:10:12;;;;;;;13.40;12.80;;;9.40;99.90;;;;;;4941706;28;20468;-70
2022/02/16 06:12:40;;;;;;;13.40;12.80;;;9.40;99.90;;;;;;4940704;28;20839;-70
2022/02/16 06:15:08;;;;;;;13.50;12.90;;;9.50;99.90;;;;;;4940388;28;20464;-71
2022/02/16 06:17:35;;;;;;;13.60;13.00;;;9.50;99.90;;;;;;4940413;28;20495;-71
2022/02/16 06:20:01;;;;;;;13.40;12.80;;;9.50;99.90;;;;;;4940033;28;20463;-70
2022/02/16 06:22:30;;;;;;;13.37;12.77;;;9.50;99.90;;;;;;4940243;28;20987;-71
2022/02/16 06:24:56;;;;;;;13.23;12.53;;;9.50;99.90;;;;;;4939949;28;21009;-70
2022/02/16 06:27:24;;;;;;;13.60;12.90;;;9.50;99.90;;;;;;4940252;28;20521;-71
2022/02/16 06:29:50;;;;;;;12.23;11.73;;;9.60;99.90;;;;;;4940089;28;20875;-70
2022/02/16 06:32:17;;;;;;;12.87;12.27;;;9.60;99.90;;;;;;4940391;28;20471;-72
2022/02/16 06:34:44;;;;;;;13.07;12.47;;;9.60;99.90;;;;;;4940129;28;20707;-72
2022/02/16 06:37:11;;;;;;;13.50;12.90;;;9.70;99.90;;;;;;4940010;28;20491;-72
2022/02/16 06:39:39;;;;;;;14.00;12.77;;;9.70;99.90;;;;;;4940476;28;20471;-70
2022/02/16 06:42:07;;;;;;;19.87;18.77;;;9.70;99.90;;;;;;4940519;28;21009;-69
2022/02/16 06:44:34;;;;;;;22.83;21.43;;;9.70;99.90;;;;;;4939840;28;20475;-70
2022/02/16 06:47:01;;;;;;;23.43;22.07;;;9.60;99.90;;;;;;4940627;28;20513;-70
2022/02/16 06:49:28;;;;;;;23.17;21.77;;;9.60;99.90;;;;;;4938966;28;20476;-69
2022/02/16 06:51:55;;;;;;;23.60;22.20;;;9.50;99.90;;;;;;4949193;28;20467;-71
2022/02/16 06:54:22;;;;;;;23.57;22.17;;;9.60;99.90;;;;;;4968348;28;20502;-69
2022/02/16 06:56:50;;;;;;;22.57;21.27;;;9.50;99.90;;;;;;4962901;28;20487;-70
2022/02/16 06:59:17;;;;;;;23.27;21.73;;;9.50;99.90;;;;;;4963769;28;20823;-71
2022/02/16 07:01:44;;;;;;;23.10;21.80;;;9.50;99.90;;;;;;4973795;28;20479;-71
2022/02/16 07:04:11;;;;;;;21.60;20.50;;;9.50;99.90;;;;;;4937310;28;20952;-71
2022/02/16 07:06:38;;;;;;;21.97;20.77;;;9.50;99.90;;;;;;4936681;28;20755;-72
2022/02/16 07:09:05;;;;;;;21.53;20.43;;;9.50;99.90;;;;;;4937995;28;20459;-70
2022/02/16 07:11:32;;;;;;;21.00;19.90;;;9.50;99.90;;;;;;4937577;28;20977;-72
2022/02/16 07:14:00;;;;;;;21.70;20.50;;;9.50;99.90;;;;;;4938557;28;20487;-71
2022/02/16 07:16:27;;;;;;;21.50;20.40;;;9.50;99.90;;;;;;4938287;28;21304;-70
2022/02/16 07:18:54;;;;;;;21.50;20.40;;;9.60;99.90;;;;;;4959979;28;20464;-70
2022/02/16 07:21:23;;;;;;;19.70;18.70;;;9.60;99.90;;;;;;4962587;28;20559;-72
2022/02/16 07:23:50;;;;;;;20.10;19.10;;;9.60;99.90;;;;;;4964675;28;20539;-72
2022/02/16 07:26:17;;;;;;;20.03;18.90;;;9.70;99.90;;;;;;4952908;28;20478;-71
2022/02/16 07:28:44;;;;;;;20.33;19.23;;;9.70;99.90;;;;;;4929461;28;20484;-71
2022/02/16 07:31:12;;;;;;;21.27;19.87;;;9.70;99.90;;;;;;4934835;28;20479;-71
2022/02/16 07:33:39;;;;;;;20.90;19.70;;;9.70;99.90;;;;;;4934399;28;20475;-71
2022/02/16 07:36:06;;;;;;;21.20;20.07;;;9.80;99.90;;;;;;4932615;28;20653;-69
2022/02/16 07:38:34;;;;;;;21.60;20.50;;;9.80;99.90;;;;;;4934956;28;20537;-70
2022/02/16 07:41:01;;;;;;;21.47;20.37;;;9.70;99.90;;;;;;4933961;28;20534;-72
2022/02/16 07:43:28;;;;;;;20.87;19.70;;;9.80;99.90;;;;;;4934397;28;20824;-71
2022/02/16 07:45:55;;;;;;;20.40;19.30;;;9.80;99.90;;;;;;4934754;28;20563;-70
2022/02/16 07:48:24;;;;;;;20.70;19.60;;;9.80;99.90;;;;;;4934443;28;21278;-71
2022/02/16 07:50:50;;;;;;;20.80;19.70;;;9.90;99.90;;;;;;4934625;28;20501;-71
2022/02/16 07:53:17;;;;;;;20.70;19.60;;;9.90;99.90;;;;;;4935760;28;20475;-71
2022/02/16 07:55:44;;;;;;;19.30;18.30;;;10.00;99.90;;;;;;4928523;28;20479;-71
2022/02/16 07:58:12;;;;;;;19.50;18.50;;;10.00;99.90;;;;;;4938551;28;20518;-71
2022/02/16 08:00:39;;;;;;;18.83;17.67;;;10.00;99.90;;;;;;4954836;28;20478;-71
2022/02/16 08:03:06;;;;;;;18.63;17.57;;;10.00;99.90;;;;;;4963803;28;20463;-70
2022/02/16 08:05:35;;;;;;;21.70;20.40;;;10.00;99.90;;;;;;4961728;28;20464;-70
2022/02/16 08:08:02;;;;;;;23.37;22.00;;;10.00;99.90;;;;;;4928722;28;20475;-71
2022/02/16 08:10:29;;;;;;;22.47;21.27;;;9.90;99.90;;;;;;4935754;28;20469;-71
2022/02/16 08:12:57;;;;;;;22.20;21.00;;;9.90;99.90;;;;;;4935365;28;20988;-72
2022/02/16 08:15:25;;;;;;;22.80;21.60;;;9.90;99.90;;;;;;4934986;28;21063;-71
2022/02/16 08:17:52;;;;;;;22.97;21.77;;;9.90;99.90;;;;;;4935902;28;20526;-72
2022/02/16 08:20:19;;;;;;;21.90;20.80;;;10.00;99.90;;;;;;4935652;28;20543;-72
2022/02/16 08:22:47;;;;;;;23.00;21.80;;;10.00;99.90;;;;;;4935804;28;20470;-71
2022/02/16 08:25:15;;;;;;;23.20;21.80;;;10.00;99.90;;;;;;4935300;28;20478;-72
2022/02/16 08:27:42;;;;;;;22.17;20.97;;;10.00;99.90;;;;;;4935830;28;20471;-71
2022/02/16 08:30:10;;;;;;;22.77;21.57;;;10.00;99.90;;;;;;4933053;28;20476;-70
2022/02/16 08:32:37;;;;;;;21.90;20.77;;;10.00;99.90;;;;;;4938569;28;20509;-71
2022/02/16 08:35:05;;;;;;;22.10;20.60;;;10.00;99.90;;;;;;4933055;28;20626;-71
2022/02/16 08:37:32;;;;;;;22.10;20.90;;;10.00;99.90;;;;;;4934564;28;20499;-71
2022/02/16 08:40:01;;;;;;;21.83;20.73;;;10.10;99.90;;;;;;4934511;28;20476;-70
2022/02/16 08:42:27;;;;;;;21.93;20.70;;;10.10;99.90;;;;;;4946343;28;20613;-71
2022/02/16 08:44:55;;;;;;;22.37;20.97;;;10.20;99.90;;;;;;4960327;28;20463;-71
2022/02/16 08:47:22;;;;;;;22.03;20.83;;;10.20;99.90;;;;;;4938276;28;21549;-71
2022/02/16 08:49:48;;;;;;;22.60;21.30;;;10.30;99.90;;;;;;4939979;28;21006;-70
2022/02/16 08:52:16;;;;;;;22.20;21.00;;;10.30;99.90;;;;;;4940241;28;20475;-70
2022/02/16 08:54:43;;;;;;;20.93;19.83;;;10.30;99.90;;;;;;4939698;28;21049;-72
2022/02/16 08:57:12;;;;;;;22.03;20.93;;;10.30;99.90;;;;;;4939454;28;20502;-71
2022/02/16 08:59:39;;;;;;;22.10;20.90;;;10.40;99.90;;;;;;4938348;28;20476;-72
2022/02/16 09:02:06;;;;;;;20.67;19.57;;;10.40;99.90;;;;;;4938575;28;20478;-68
2022/02/16 09:04:33;;;;;;;19.80;18.80;;;10.40;99.90;;;;;;4938847;28;22539;-71
2022/02/16 09:09:44;;;;;;;20.20;19.20;;;10.40;99.90;;;;;;4938350;28;20486;-71
2022/02/16 09:12:12;;;;;;;20.00;19.00;;;10.40;99.90;;;;;;4937980;28;20812;-71
2022/02/16 09:14:40;;;;;;;20.10;19.00;;;10.40;99.90;;;;;;4938337;28;20460;-71
2022/02/16 09:17:07;;;;;;;19.83;18.83;;;10.40;99.90;;;;;;4937797;28;20513;-73
2022/02/16 09:19:34;;;;;;;19.43;18.03;;;10.40;99.90;;;;;;4938475;28;20452;-71
2022/02/16 09:22:01;;;;;;;18.60;17.60;;;10.50;99.90;;;;;;4938172;28;20483;-71
2022/02/16 09:24:28;;;;;;;17.87;16.97;;;10.50;99.90;;;;;;4938260;28;20810;-72
2022/02/16 09:26:55;;;;;;;17.40;16.60;;;10.60;99.90;;;;;;4938852;28;20931;-71
2022/02/16 09:29:24;;;;;;;17.30;16.40;;;10.60;99.90;;;;;;4937567;28;20553;-70
2022/02/16 09:31:52;;;;;;;17.00;16.20;;;10.60;99.90;;;;;;4938844;28;20834;-73
2022/02/16 09:34:20;;;;;;;16.80;15.93;;;10.60;99.90;;;;;;4938622;28;21208;-72
2022/02/16 09:36:47;;;;;;;16.80;16.00;;;10.70;99.90;;;;;;4938179;28;20467;-70
2022/02/16 09:39:14;;;;;;;18.43;17.43;;;10.80;99.90;;;;;;4938495;28;20495;-71
2022/02/16 09:41:44;;;;;;;17.40;16.60;;;10.80;99.90;;;;;;4938004;28;21296;-71
2022/02/16 09:44:13;;;;;;;18.07;17.17;;;10.80;99.90;;;;;;4938294;28;20615;-70
2022/02/16 09:46:41;;;;;;;18.70;17.80;;;10.80;99.90;;;;;;4937994;28;20468;-71
2022/02/16 09:49:12;;;;;;;18.70;17.80;;;10.80;99.90;;;;;;4938133;28;20553;-71
2022/02/16 09:51:39;;;;;;;18.73;17.73;;;10.80;99.90;;;;;;4937940;28;20969;-72
2022/02/16 09:54:06;;;;;;;18.27;17.37;;;10.70;99.90;;;;;;4938300;28;20486;-72
2022/02/16 09:56:33;;;;;;;18.60;17.60;;;10.80;99.90;;;;;;4938358;28;20488;-71
2022/02/16 09:59:03;;;;;;;18.47;17.57;;;10.80;99.90;;;;;;4937559;28;22454;-71
2022/02/16 10:01:29;;;;;;;18.90;17.80;;;10.90;99.90;;;;;;4938215;28;21243;-71
2022/02/16 10:04:03;;;;;;;18.40;17.50;;;10.90;99.90;;;;;;4937271;28;20500;-71
2022/02/16 10:06:38;;;;;;;19.40;18.30;;;11.00;99.90;;;;;;4937823;28;20459;-71
2022/02/16 10:09:06;;;;;;;17.73;16.93;;;11.00;99.90;;;;;;4938238;28;21934;-73
2022/02/16 10:11:34;;;;;;;18.23;17.10;;;11.00;99.90;;;;;;4937748;28;20464;-73
2022/02/16 10:14:19;;;;;;;17.63;16.83;;;11.10;99.90;;;;;;4939612;28;21188;-72
2022/02/16 10:16:47;;;;;;;17.03;16.23;;;11.10;99.90;;;;;;4937815;28;20492;-72
2022/02/16 10:19:15;;;;;;;16.87;16.07;;;11.30;99.90;;;;;;4937396;28;20491;-72
2022/02/16 10:22:01;;;;;;;18.03;16.93;;;11.30;99.90;;;;;;4937672;28;20473;-72
2022/02/16 10:24:27;;;;;;;17.60;16.63;;;11.30;99.90;;;;;;4937348;28;20980;-72
2022/02/16 10:26:57;;;;;;;17.30;16.50;;;11.30;99.90;;;;;;4937491;28;20478;-69
2022/02/16 10:29:26;;;;;;;17.77;16.97;;;11.40;99.90;;;;;;4937507;28;20467;-70
2022/02/16 10:31:53;;;;;;;18.57;17.27;;;11.40;99.90;;;;;;4937703;28;20497;-69
2022/02/16 10:34:21;;;;;;;19.57;18.57;;;11.40;99.90;;;;;;4937281;28;20468;-69
2022/02/16 10:36:48;;;;;;;19.47;18.47;;;11.40;99.90;;;;;;4937019;28;20503;-69
2022/02/16 10:39:17;;;;;;;19.97;18.97;;;11.30;99.90;;;;;;4937802;28;20627;-70
2022/02/16 10:41:46;;;;;;;21.10;19.80;;;11.30;99.90;;;;;;4937207;28;21046;-70
2022/02/16 10:44:17;;;;;;;21.40;20.30;;;11.40;99.90;;;;;;4937446;28;21086;-72
2022/02/16 10:46:44;;;;;;;20.80;19.53;;;11.30;99.90;;;;;;4937366;28;20479;-72
2022/02/16 10:49:12;;;;;;;22.03;20.83;;;11.40;99.90;;;;;;4936511;28;21131;-73
2022/02/16 10:51:42;;;;;;;22.77;21.47;;;11.40;99.90;;;;;;4936070;28;20470;-72
2022/02/16 10:54:14;;;;;;;23.40;22.10;;;11.50;99.90;;;;;;4936536;28;20965;-69
2022/02/16 10:56:41;;;;;;;21.90;20.70;;;11.50;99.90;;;;;;4936515;28;20464;-71
2022/02/16 10:59:08;;;;;;;22.60;21.40;;;11.60;99.90;;;;;;4935936;28;20494;-69
2022/02/16 11:01:36;;;;;;;22.60;21.37;;;11.60;99.90;;;;;;4936091;28;20965;-70
2022/02/16 11:04:05;;;;;;;23.27;21.87;;;11.60;99.90;;;;;;4937120;28;20987;-69
2022/02/16 11:06:35;;;;;;;22.47;21.10;;;11.60;99.90;;;;;;4935978;28;20554;-72
2022/02/16 11:09:03;;;;;;;23.13;21.83;;;11.60;99.90;;;;;;4934142;28;21093;-73
2022/02/16 11:11:31;;;;;;;22.07;20.87;;;11.60;99.90;;;;;;4934229;28;20467;-72
2022/02/16 11:14:00;;;;;;;23.80;22.40;;;11.70;99.90;;;;;;4934279;28;20470;-70
2022/02/16 11:16:28;;;;;;;22.00;20.80;;;11.80;99.90;;;;;;4934795;28;21026;-73
2022/02/16 11:18:59;;;;;;;22.20;21.00;;;11.80;99.90;;;;;;4934950;28;20495;-71
2022/02/16 11:21:28;;;;;;;21.73;20.53;;;11.90;99.90;;;;;;4936104;28;20475;-72
2022/02/16 11:23:56;;;;;;;22.43;20.60;;;11.80;99.90;;;;;;4935240;28;20467;-72
2022/02/16 11:26:35;;;;;;;22.60;21.13;;;11.80;99.90;;;;;;4936307;28;20484;-72
2022/02/16 11:29:06;;;;;;;20.53;19.43;;;11.80;99.90;;;;;;4936525;28;20464;-72
2022/02/16 11:31:37;;;;;;;21.00;19.67;;;11.80;99.90;;;;;;4936294;28;20525;-71
2022/02/16 11:34:21;;;;;;;20.30;19.20;;;11.80;99.90;;;;;;4936470;28;20487;-72
2022/02/16 11:36:56;;;;;;;20.13;19.00;;;11.90;99.90;;;;;;4936380;28;20514;-72
2022/02/16 11:39:43;;;;;;;20.27;18.90;;;11.90;99.90;;;;;;4935625;28;21178;-72
2022/02/16 11:42:13;;;;;;;19.23;18.23;;;11.90;99.90;;;;;;4935556;28;20487;-72
2022/02/16 11:45:04;;;;;;;19.47;18.40;;;11.90;99.90;;;;;;4936136;28;20474;-73
2022/02/16 11:47:53;;;;;;;18.77;17.80;;;12.00;99.90;;;;;;4936024;28;20965;-72
2022/02/16 11:50:42;;;;;;;18.50;17.60;;;12.10;99.90;;;;;;4936069;28;20483;-71
2022/02/16 11:53:11;;;;;;;19.20;18.10;;;12.10;99.90;;;;;;4938376;28;20479;-72
2022/02/16 11:55:41;;;;;;;20.33;19.00;;;12.10;99.90;;;;;;4935810;28;20459;-72
2022/02/16 11:58:20;;;;;;;19.63;18.50;;;12.10;99.90;;;;;;4935981;28;22452;-71
2022/02/16 12:00:58;;;;;;;19.10;18.10;;;12.10;99.90;;;;;;4935450;28;20464;-72
2022/02/16 12:03:27;;;;;;;19.33;18.13;;;12.10;99.90;;;;;;4935572;28;20572;-71
2022/02/16 12:06:03;;;;;;;17.93;16.83;;;12.20;99.90;;;;;;4935578;28;20570;-71
2022/02/16 12:08:32;;;;;;;17.87;16.90;;;12.30;99.90;;;;;;4935394;28;20475;-72
2022/02/16 12:11:04;;;;;;;17.67;16.77;;;12.50;99.90;;;;;;4935877;28;20904;-71
2022/02/16 12:13:35;;;;;;;18.80;17.70;;;12.50;99.90;;;;;;4935853;28;20543;-72
2022/02/16 12:16:07;;;;;;;17.80;16.77;;;12.50;99.90;;;;;;4953645;28;20574;-71
2022/02/16 12:18:35;;;;;;;17.40;16.50;;;12.50;99.90;;;;;;4950174;28;21091;-71
2022/02/16 12:21:04;;;;;;;16.13;15.33;;;12.50;99.90;;;;;;4964770;28;20486;-72
2022/02/16 12:23:35;;;;;;;16.97;14.77;;;12.60;99.90;;;;;;4967406;28;20468;-71
2022/02/16 12:26:07;;;;;;;16.03;14.70;;;12.70;99.90;;;;;;4947075;28;20939;-71
2022/02/16 12:28:54;;;;;;;15.17;14.30;;;12.80;99.90;;;;;;4941097;28;20479;-72
2022/02/16 12:31:23;;;;;;;14.70;13.80;;;13.10;99.90;;;;;;4941675;28;20598;-73
2022/02/16 12:34:00;;;;;;;15.27;14.20;;;13.40;99.90;;;;;;4940857;28;20471;-71
2022/02/16 12:36:28;;;;;;;15.03;14.00;;;13.50;99.90;;;;;;4941422;28;20544;-71
2022/02/16 12:38:58;;;;;;;15.07;14.27;;;13.50;99.90;;;;;;4940585;28;21040;-71
2022/02/16 12:41:25;;;;;;;15.27;14.27;;;13.60;99.90;;;;;;4940852;28;20495;-71